createdAt,value
2018-07-06T08:02:36.757Z,15.53
2018-07-06T08:05:05.907Z,16.53
2018-07-06T08:07:34.995Z,15.77
2018-07-06T08:10:04.631Z,17.43
2018-07-06T08:12:33.206Z,16.93
2018-07-06T08:15:08.367Z,14.70
2018-07-06T08:17:36.908Z,15.53
2018-07-06T08:20:05.487Z,15.43
2018-07-06T08:22:34.929Z,18.77
2018-07-06T08:25:04.407Z,16.03
2018-07-06T08:27:33.694Z,14.17
2018-07-06T08:30:03.116Z,13.43
2018-07-06T08:32:32.197Z,14.30
2018-07-06T08:35:12.047Z,15.53
2018-07-06T08:37:58.346Z,15.23
2018-07-06T08:40:28.277Z,15.83
2018-07-06T08:42:59.096Z,17.13
2018-07-06T08:45:29.178Z,16.90
2018-07-06T08:47:58.601Z,18.03
2018-07-06T08:50:27.880Z,14.77
2018-07-06T08:52:57.258Z,16.43
2018-07-06T08:55:26.156Z,16.30
2018-07-06T08:57:56.522Z,15.57
2018-07-06T09:00:25.205Z,17.37
2018-07-06T09:02:53.561Z,15.27
2018-07-06T09:05:22.166Z,17.50
2018-07-06T09:07:53.803Z,15.47
2018-07-06T09:10:22.219Z,13.87
2018-07-06T09:13:13.639Z,15.67
2018-07-06T09:15:42.470Z,16.27
2018-07-06T09:18:11.203Z,16.23
2018-07-06T09:20:40.992Z,16.03
2018-07-06T09:23:09.534Z,15.47
2018-07-06T09:25:38.877Z,16.43
2018-07-06T09:28:10.953Z,17.67
2018-07-06T09:30:40.451Z,15.80
2018-07-06T09:33:09.089Z,16.20
2018-07-06T09:35:40.658Z,17.10
2018-07-06T09:38:56.982Z,16.80
2018-07-06T09:41:29.154Z,17.50
2018-07-06T09:43:58.451Z,16.13
2018-07-06T09:46:27.235Z,15.47
2018-07-06T09:49:03.496Z,15.23
2018-07-06T09:51:33.513Z,14.93
2018-07-06T09:54:05.793Z,15.80
2018-07-06T09:56:35.020Z,15.03
2018-07-06T09:59:03.607Z,15.57
2018-07-06T10:01:32.016Z,15.43
2018-07-06T10:04:02.122Z,13.40
2018-07-06T10:06:30.623Z,14.03
2018-07-06T10:08:59.563Z,13.50
2018-07-06T10:11:28.663Z,14.90
2018-07-06T10:13:57.265Z,16.00
2018-07-06T10:16:34.055Z,16.07
2018-07-06T10:19:05.966Z,17.37
2018-07-06T10:21:34.860Z,16.30
2018-07-06T10:24:04.015Z,15.40
2018-07-06T10:26:32.606Z,15.43
2018-07-06T10:42:05.786Z,15.77
2018-07-06T10:44:35.433Z,13.00
2018-07-06T10:47:04.787Z,12.00
2018-07-06T10:49:34.098Z,11.63
2018-07-06T10:52:03.256Z,11.40
2018-07-06T10:54:31.778Z,11.73
2018-07-06T10:57:03.702Z,10.67
2018-07-06T10:59:32.341Z,11.80
2018-07-06T11:02:00.900Z,11.23
2018-07-06T11:04:29.813Z,10.30
2018-07-06T11:06:58.806Z,10.47
2018-07-06T11:09:27.889Z,9.90
2018-07-06T11:11:56.343Z,10.10
2018-07-06T11:14:25.731Z,11.20
2018-07-06T11:16:55.604Z,11.83
2018-07-06T11:19:35.815Z,11.87
2018-07-06T11:22:05.253Z,12.03
2018-07-06T11:24:35.271Z,8.60
2018-07-06T11:27:04.311Z,9.10
2018-07-06T11:29:38.209Z,11.13
2018-07-06T11:37:28.413Z,10.00
2018-07-06T11:49:19.257Z,9.00
2018-07-06T11:51:49.322Z,9.67
2018-07-06T11:54:31.423Z,9.10
2018-07-06T11:57:02.720Z,8.93
2018-07-06T12:04:56.640Z,8.03
2018-07-06T12:07:26.019Z,7.90
2018-07-06T12:09:54.909Z,9.17
2018-07-06T12:12:23.759Z,6.43
2018-07-06T12:14:52.546Z,5.63
2018-07-06T12:17:21.663Z,9.20
2018-07-06T12:22:26.539Z,8.03
2018-07-06T12:25:03.277Z,6.63
2018-07-06T12:27:32.915Z,7.80
2018-07-06T12:30:01.512Z,5.47
2018-07-06T12:33:01.224Z,5.33
2018-07-06T12:35:31.115Z,5.40
2018-07-06T12:38:01.855Z,6.83
2018-07-06T12:40:31.416Z,8.20
2018-07-06T12:43:00.496Z,7.43
2018-07-06T12:45:29.019Z,9.93
2018-07-06T12:50:31.815Z,5.05
2018-07-06T12:53:00.427Z,9.33
2018-07-06T12:55:34.341Z,6.67
2018-07-06T12:58:04.747Z,9.28
2018-07-06T13:00:34.359Z,5.47
2018-07-06T13:03:03.925Z,5.05
2018-07-06T13:05:32.395Z,4.37
2018-07-06T13:08:00.882Z,4.40
